createdAt,value
2023-04-16T00:01:01.410Z,98505.53
2023-04-16T00:03:28.105Z,98498.53
2023-04-16T00:05:55.978Z,98500.38
2023-04-16T00:08:24.629Z,98503.34
2023-04-16T00:10:52.850Z,98495.25
2023-04-16T00:13:19.679Z,98498.75
2023-04-16T00:15:46.043Z,98500.94
2023-04-16T00:18:12.475Z,98502.03
2023-04-16T00:20:39.207Z,98500.94
2023-04-16T00:23:05.668Z,98503.91
2023-04-16T00:25:32.161Z,98504.16
2023-04-16T00:27:58.627Z,98495.56
2023-04-16T00:30:25.221Z,98495.56
2023-04-16T00:32:51.722Z,98506.63
2023-04-16T00:35:18.265Z,98510.13
2023-04-16T00:37:44.674Z,98504.97
2023-04-16T00:40:11.440Z,98504.72
2023-04-16T00:42:38.173Z,98510.13
2023-04-16T00:45:05.592Z,98506.34
2023-04-16T00:47:32.207Z,98502.56
2023-04-16T00:49:58.725Z,98504.16
2023-04-16T00:52:26.517Z,98518.19
2023-04-16T00:54:54.135Z,98503.34
2023-04-16T00:57:23.754Z,98510.13
2023-04-16T00:59:50.530Z,98509.03
2023-04-16T01:02:17.511Z,98515.50
2023-04-16T01:04:44.106Z,98512.00
2023-04-16T01:07:10.587Z,98513.63
2023-04-16T01:09:36.957Z,98508.50
2023-04-16T01:12:03.468Z,98505.25
2023-04-16T01:14:31.614Z,98512.25
2023-04-16T01:16:58.004Z,98509.56
2023-04-16T01:19:24.438Z,98507.44
2023-04-16T01:21:51.043Z,98517.94
2023-04-16T01:24:17.519Z,98519.84
2023-04-16T01:26:43.961Z,98523.63
2023-04-16T01:29:10.438Z,98526.31
2023-04-16T01:31:37.248Z,98532.81
2023-04-16T01:34:03.788Z,98528.72
2023-04-16T01:36:30.398Z,98529.53
2023-04-16T01:38:56.941Z,98532.22
2023-04-16T01:41:23.404Z,98531.44
2023-04-16T01:43:49.767Z,98532.22
2023-04-16T01:46:30.676Z,98529.81
2023-04-16T01:48:58.260Z,98525.22
2023-04-16T01:51:24.838Z,98528.72
2023-04-16T01:53:51.424Z,98532.22
2023-04-16T01:56:17.864Z,98532.53
2023-04-16T01:58:46.043Z,98525.78
2023-04-16T02:01:13.411Z,98535.78
2023-04-16T02:03:40.722Z,98533.59
2023-04-16T02:06:07.268Z,98533.06
2023-04-16T02:08:33.732Z,98530.38
2023-04-16T02:11:00.982Z,98526.59
2023-04-16T02:13:27.462Z,98529.56
2023-04-16T02:15:54.210Z,98532.28
2023-04-16T02:18:20.631Z,98530.63
2023-04-16T02:20:47.357Z,98533.88
2023-04-16T02:23:15.089Z,98531.19
2023-04-16T02:25:43.347Z,98533.88
2023-04-16T02:28:11.319Z,98531.19
2023-04-16T02:30:38.548Z,98540.38
2023-04-16T02:33:07.296Z,98540.38
2023-04-16T02:35:37.755Z,98536.03
2023-04-16T02:38:05.026Z,98538.47
2023-04-16T02:40:31.890Z,98544.94
2023-04-16T02:42:58.397Z,98538.72
2023-04-16T02:45:25.280Z,98539.81
2023-04-16T02:47:51.884Z,98541.69
2023-04-16T02:50:18.452Z,98541.69
2023-04-16T02:52:45.000Z,98540.63
2023-04-16T02:55:11.651Z,98544.13
2023-04-16T02:57:38.053Z,98539.53
2023-04-16T03:00:05.106Z,98542.22
2023-04-16T03:02:31.835Z,98537.13
2023-04-16T03:04:58.588Z,98544.94
2023-04-16T03:07:25.188Z,98546.81
2023-04-16T03:09:51.746Z,98546.81
2023-04-16T03:12:18.171Z,98545.19
2023-04-16T03:14:44.544Z,98545.19
2023-04-16T03:17:11.546Z,98544.41
2023-04-16T03:19:37.993Z,98553.56
2023-04-16T03:22:04.916Z,98550.31
2023-04-16T03:24:32.193Z,98553.28
2023-04-16T03:26:58.881Z,98549.28
2023-04-16T03:29:26.728Z,98551.44
2023-04-16T03:31:53.237Z,98552.25
2023-04-16T03:34:19.624Z,98557.63
2023-04-16T03:36:46.327Z,98559.78
2023-04-16T03:39:12.746Z,98563.03
2023-04-16T03:41:39.172Z,98565.19
2023-04-16T03:44:05.765Z,98570.56
2023-04-16T03:46:32.335Z,98575.16
2023-04-16T03:48:58.778Z,98562.75
2023-04-16T03:51:26.465Z,98577.06
2023-04-16T03:53:53.112Z,98570.56
2023-04-16T03:56:19.485Z,98567.34
2023-04-16T03:58:45.874Z,98571.13
2023-04-16T04:01:12.200Z,98574.63
2023-04-16T04:03:38.715Z,98575.72
2023-04-16T04:06:08.890Z,98571.13
2023-04-16T04:08:35.622Z,98574.91
2023-04-16T04:11:02.048Z,98575.19
2023-04-16T04:13:28.611Z,98573.28
2023-04-16T04:15:55.028Z,98574.09
2023-04-16T04:18:21.460Z,98583.28
2023-04-16T04:20:47.823Z,98577.06
2023-04-16T04:23:14.214Z,98578.69
2023-04-16T04:25:40.706Z,98582.19
2023-04-16T04:28:07.125Z,98590.28
2023-04-16T04:30:35.651Z,98588.69
2023-04-16T04:33:02.245Z,98593.22
2023-04-16T04:35:29.068Z,98592.19
2023-04-16T04:37:55.687Z,98602.41
2023-04-16T04:40:22.356Z,98595.41
2023-04-16T04:42:48.904Z,98602.41
2023-04-16T04:45:16.053Z,98608.88
2023-04-16T04:47:42.650Z,98606.19
2023-04-16T04:50:09.611Z,98609.41
2023-04-16T04:52:36.277Z,98609.41
2023-04-16T04:55:02.728Z,98614.00
2023-04-16T04:57:29.137Z,98614.81
2023-04-16T04:59:55.525Z,98612.13
2023-04-16T05:02:22.022Z,98620.75
2023-04-16T05:04:48.605Z,98616.97
2023-04-16T05:07:16.287Z,98618.06
2023-04-16T05:09:42.695Z,98621.56
2023-04-16T05:12:09.135Z,98635.06
2023-04-16T05:14:36.320Z,98630.47
2023-04-16T05:17:02.954Z,98624.53
2023-04-16T05:19:29.718Z,98635.34
2023-04-16T05:21:56.256Z,98645.03
2023-04-16T05:24:22.822Z,98641.78
2023-04-16T05:26:49.214Z,98648.81
2023-04-16T05:29:15.944Z,98650.44
2023-04-16T05:31:42.548Z,98650.72
2023-04-16T05:34:08.899Z,98652.56
2023-04-16T05:36:35.293Z,98664.19
2023-04-16T05:39:01.627Z,98659.84
2023-04-16T05:41:28.084Z,98661.75
2023-04-16T05:43:54.473Z,98667.13
2023-04-16T05:46:20.956Z,98665.25
2023-04-16T05:48:47.342Z,98680.38
2023-04-16T05:51:13.714Z,98675.22
2023-04-16T05:53:40.931Z,98670.91
2023-04-16T05:56:08.045Z,98686.03
2023-04-16T05:58:34.428Z,98678.47
2023-04-16T06:01:01.379Z,98678.22
2023-04-16T06:03:28.042Z,98681.72
2023-04-16T06:05:54.653Z,98690.34
2023-04-16T06:08:21.125Z,98683.31
2023-04-16T06:10:47.750Z,98690.34
2023-04-16T06:13:14.407Z,98691.41
2023-04-16T06:15:40.939Z,98688.72
2023-04-16T06:18:07.397Z,98685.78
2023-04-16T06:20:33.945Z,98687.13
2023-04-16T06:23:00.656Z,98696.53
2023-04-16T06:25:27.073Z,98688.44
2023-04-16T06:27:53.514Z,98689.28
2023-04-16T06:30:20.628Z,98690.59
2023-04-16T06:32:47.863Z,98693.06
2023-04-16T06:35:14.528Z,98693.06
2023-04-16T06:37:41.287Z,98697.38
2023-04-16T06:40:08.268Z,98696.28
2023-04-16T06:42:34.745Z,98693.59
2023-04-16T06:45:01.343Z,98705.72
2023-04-16T06:47:27.768Z,98701.94
2023-04-16T06:49:54.318Z,98699.53
2023-04-16T06:52:20.822Z,98706.53
2023-04-16T06:54:48.326Z,98702.78
2023-04-16T06:57:14.798Z,98717.88
2023-04-16T06:59:41.205Z,98706.28
2023-04-16T07:02:10.528Z,98710.59
2023-04-16T07:04:37.279Z,98711.41
2023-04-16T07:07:03.738Z,98715.16
2023-04-16T07:09:30.182Z,98714.09
2023-04-16T07:11:56.734Z,98709.53
2023-04-16T07:14:23.169Z,98711.41
2023-04-16T07:16:49.594Z,98717.63
2023-04-16T07:19:16.257Z,98721.13
2023-04-16T07:21:43.851Z,98718.94
2023-04-16T07:24:11.639Z,98718.69
2023-04-16T07:26:38.188Z,98712.19
2023-04-16T07:29:04.623Z,98714.91
2023-04-16T07:31:31.502Z,98718.13
2023-04-16T07:33:58.579Z,98718.41
2023-04-16T07:36:25.141Z,98724.91
2023-04-16T07:38:51.522Z,98727.84
2023-04-16T07:41:18.035Z,98727.59
2023-04-16T07:43:44.460Z,98738.38
2023-04-16T07:46:11.027Z,98737.31
2023-04-16T07:48:37.437Z,98743.78
2023-04-16T07:51:03.883Z,98743.78
2023-04-16T07:53:30.467Z,98749.72
2023-04-16T07:55:57.001Z,98740.53
2023-04-16T07:58:24.698Z,98737.31
2023-04-16T08:00:51.776Z,98743.25
2023-04-16T08:03:18.503Z,98744.31
2023-04-16T08:05:45.246Z,98752.44
2023-04-16T08:08:11.618Z,98759.97
2023-04-16T08:10:38.911Z,98753.50
2023-04-16T08:13:05.587Z,98764.31
2023-04-16T08:15:32.317Z,98768.09
2023-04-16T08:17:59.457Z,98754.59
2023-04-16T08:20:26.193Z,98767.53
2023-04-16T08:22:53.994Z,98766.44
2023-04-16T08:25:21.193Z,98773.22
2023-04-16T08:27:47.757Z,98776.44
2023-04-16T08:30:16.633Z,98778.06
2023-04-16T08:32:43.514Z,98782.09
2023-04-16T08:35:10.311Z,98785.38
2023-04-16T08:37:36.732Z,98792.91
2023-04-16T08:40:03.910Z,98798.84
2023-04-16T08:42:40.582Z,98795.09
2023-04-16T08:45:09.266Z,98794.00
2023-04-16T08:47:37.239Z,98802.09
2023-04-16T08:50:05.285Z,98805.59
2023-04-16T08:52:32.706Z,98806.41
2023-04-16T08:55:11.915Z,98809.66
2023-04-16T08:57:53.509Z,98801.53
2023-04-16T09:00:20.825Z,98815.59
2023-04-16T09:02:47.479Z,98804.25
2023-04-16T09:05:20.676Z,98808.28
2023-04-16T09:07:48.358Z,98812.59
2023-04-16T09:10:15.598Z,98819.66
2023-04-16T09:12:43.162Z,98815.59
2023-04-16T09:15:13.903Z,98812.38
2023-04-16T09:17:42.212Z,98818.56
2023-04-16T09:20:10.988Z,98824.50
2023-04-16T09:22:37.901Z,98827.75
2023-04-16T09:25:04.674Z,98824.50
2023-04-16T09:27:31.863Z,98831.78
2023-04-16T09:29:58.517Z,98823.69
2023-04-16T09:32:29.978Z,98831.25
2023-04-16T09:34:57.649Z,98829.91
2023-04-16T09:37:25.697Z,98831.25
2023-04-16T09:40:03.710Z,98831.50
2023-04-16T09:42:36.343Z,98831.81
2023-04-16T09:45:05.561Z,98837.72
2023-04-16T09:47:46.175Z,98838.81
2023-04-16T09:50:18.585Z,98832.59
2023-04-16T09:52:48.633Z,98836.09
2023-04-16T09:55:15.373Z,98840.97
2023-04-16T09:57:41.779Z,98844.50
2023-04-16T10:00:11.720Z,98840.97
2023-04-16T10:02:41.768Z,98848.28
2023-04-16T10:05:10.714Z,98846.66
2023-04-16T10:07:37.661Z,98848.00
2023-04-16T10:10:05.113Z,98850.16
2023-04-16T10:12:32.921Z,98854.75
2023-04-16T10:14:59.751Z,98855.31
2023-04-16T10:17:29.941Z,98849.09
2023-04-16T10:19:57.937Z,98857.72
2023-04-16T10:22:24.465Z,98861.25
2023-04-16T10:24:51.707Z,98858.25
2023-04-16T10:27:19.831Z,98862.56
2023-04-16T10:29:46.776Z,98864.75
2023-04-16T10:32:18.787Z,98867.72
2023-04-16T10:34:45.984Z,98860.16
2023-04-16T10:37:12.702Z,98863.38
2023-04-16T10:39:39.218Z,98870.69
2023-04-16T10:42:12.890Z,98863.94
2023-04-16T10:44:45.186Z,98871.22
2023-04-16T10:47:13.318Z,98862.06
2023-04-16T10:49:41.062Z,98863.16
2023-04-16T10:52:11.587Z,98871.81
2023-04-16T10:54:39.391Z,98861.53
2023-04-16T10:57:12.232Z,98876.13
2023-04-16T10:59:42.299Z,98870.72
2023-04-16T11:02:14.794Z,98873.16
2023-04-16T11:04:46.150Z,98865.31
2023-04-16T11:07:16.472Z,98871.81
2023-04-16T11:09:59.863Z,98873.41
2023-04-16T11:12:29.831Z,98879.09
2023-04-16T11:15:01.770Z,98871.22
2023-04-16T11:17:36.495Z,98878.28
2023-04-16T11:20:05.075Z,98875.56
2023-04-16T11:22:46.023Z,98878.28
2023-04-16T11:25:12.711Z,98879.34
2023-04-16T11:27:39.589Z,98864.22
2023-04-16T11:30:10.951Z,98881.50
2023-04-16T11:32:38.617Z,98882.59
2023-04-16T11:35:13.827Z,98877.72
2023-04-16T11:37:40.446Z,98876.63
2023-04-16T11:40:08.266Z,98887.19
2023-04-16T11:42:37.370Z,98883.63
2023-04-16T11:45:04.898Z,98881.78
2023-04-16T11:47:32.896Z,98882.31
2023-04-16T11:50:35.593Z,98890.94
2023-04-16T11:53:06.358Z,98884.22
2023-04-16T11:55:43.216Z,98886.34
2023-04-16T11:58:13.560Z,98876.63
2023-04-16T12:00:41.644Z,98892.34
2023-04-16T12:03:08.244Z,98888.25
2023-04-16T12:05:38.636Z,98884.50
2023-04-16T12:08:09.988Z,98893.97
2023-04-16T12:10:52.363Z,98882.34
2023-04-16T12:13:19.640Z,98888.00
2023-04-16T12:15:50.903Z,98889.38
2023-04-16T12:18:19.226Z,98896.66
2023-04-16T12:20:46.639Z,98893.94
2023-04-16T12:23:29.851Z,98893.16
2023-04-16T12:25:59.634Z,98892.34
2023-04-16T12:28:38.267Z,98895.56
2023-04-16T12:31:05.898Z,98895.84
2023-04-16T12:33:32.494Z,98898.28
2023-04-16T12:35:59.104Z,98900.44
2023-04-16T12:38:26.852Z,98906.38
2023-04-16T12:40:56.855Z,98912.59
2023-04-16T12:43:23.704Z,98902.59
2023-04-16T12:45:50.100Z,98902.84
2023-04-16T12:48:16.573Z,98896.41
2023-04-16T12:50:44.318Z,98905.84
2023-04-16T12:53:11.743Z,98907.22
2023-04-16T12:55:38.292Z,98898.00
2023-04-16T12:58:04.725Z,98901.50
2023-04-16T13:00:31.231Z,98900.44
2023-04-16T13:02:57.992Z,98897.19
2023-04-16T13:05:24.715Z,98892.31
2023-04-16T13:07:51.153Z,98895.03
2023-04-16T13:10:17.758Z,98890.72
2023-04-16T13:12:44.217Z,98891.53
2023-04-16T13:15:11.444Z,98891.81
2023-04-16T13:17:37.961Z,98903.13
2023-04-16T13:20:04.916Z,98894.50
2023-04-16T13:22:31.488Z,98886.63
2023-04-16T13:24:58.060Z,98899.09
2023-04-16T13:27:24.461Z,98896.94
2023-04-16T13:29:50.877Z,98895.31
2023-04-16T13:32:18.907Z,98895.84
2023-04-16T13:34:45.602Z,98899.09
2023-04-16T13:37:12.053Z,98900.19
2023-04-16T13:39:38.659Z,98896.41
2023-04-16T13:42:05.359Z,98905.03
2023-04-16T13:44:32.580Z,98898.00
2023-04-16T13:46:59.267Z,98901.53
2023-04-16T13:49:25.848Z,98905.84
2023-04-16T13:51:52.532Z,98906.38
2023-04-16T13:54:18.962Z,98902.59
2023-04-16T13:56:45.962Z,98904.22
2023-04-16T13:59:12.687Z,98902.06
2023-04-16T14:01:40.215Z,98897.75
2023-04-16T14:04:07.375Z,98905.84
2023-04-16T14:06:36.759Z,98893.41
2023-04-16T14:09:04.185Z,98900.97
2023-04-16T14:11:31.461Z,98910.41
2023-04-16T14:13:58.280Z,98900.41
2023-04-16T14:16:24.793Z,98908.53
2023-04-16T14:18:51.965Z,98910.97
2023-04-16T14:21:18.655Z,98899.88
2023-04-16T14:23:45.572Z,98896.91
2023-04-16T14:26:12.152Z,98891.50
2023-04-16T14:28:39.862Z,98903.13
2023-04-16T14:31:06.498Z,98899.34
2023-04-16T14:33:33.106Z,98897.72
2023-04-16T14:36:02.073Z,98897.72
2023-04-16T14:38:29.958Z,98904.75
2023-04-16T14:40:56.633Z,98897.72
2023-04-16T14:43:23.079Z,98893.16
2023-04-16T14:45:49.588Z,98897.47
2023-04-16T14:48:16.019Z,98898.81
2023-04-16T14:50:43.943Z,98898.81
2023-04-16T14:53:13.522Z,98899.88
2023-04-16T14:55:39.956Z,98897.19
2023-04-16T14:58:06.373Z,98902.59
2023-04-16T15:00:35.494Z,98906.38
2023-04-16T15:03:02.109Z,98912.31
2023-04-16T15:05:29.961Z,98904.75
2023-04-16T15:07:56.691Z,98907.19
2023-04-16T15:10:23.174Z,98908.28
2023-04-16T15:12:49.646Z,98908.00
2023-04-16T15:15:16.273Z,98903.69
2023-04-16T15:17:43.536Z,98915.56
2023-04-16T15:20:10.549Z,98909.38
2023-04-16T15:22:37.226Z,98901.25
2023-04-16T15:25:05.010Z,98908.53
2023-04-16T15:27:31.450Z,98909.38
2023-04-16T15:29:57.849Z,98910.16
2023-04-16T15:32:24.934Z,98914.22
2023-04-16T15:34:52.198Z,98907.47
2023-04-16T15:37:18.676Z,98915.56
2023-04-16T15:39:45.199Z,98921.50
2023-04-16T15:42:11.862Z,98914.75
2023-04-16T15:44:38.321Z,98915.28
2023-04-16T15:47:06.258Z,98911.25
2023-04-16T15:49:32.726Z,98908.78
2023-04-16T15:51:59.228Z,98916.09
2023-04-16T15:54:25.737Z,98920.97
2023-04-16T15:56:52.210Z,98919.06
2023-04-16T15:59:18.703Z,98916.38
2023-04-16T16:01:45.263Z,98920.97
2023-04-16T16:04:11.975Z,98923.94
2023-04-16T16:06:39.512Z,98923.94
2023-04-16T16:09:06.944Z,98919.91
2023-04-16T16:11:33.724Z,98925.31
2023-04-16T16:14:03.477Z,98929.09
2023-04-16T16:16:30.040Z,98922.06
2023-04-16T16:18:56.534Z,98928.56
2023-04-16T16:21:23.000Z,98927.75
2023-04-16T16:23:49.862Z,98929.06
2023-04-16T16:26:16.456Z,98933.97
2023-04-16T16:28:44.614Z,98933.16
2023-04-16T16:31:12.253Z,98935.84
2023-04-16T16:33:40.471Z,98936.09
2023-04-16T16:36:11.453Z,98934.50
2023-04-16T16:38:39.967Z,98929.09
2023-04-16T16:41:07.154Z,98935.81
2023-04-16T16:43:34.873Z,98934.50
2023-04-16T16:46:01.317Z,98942.31
2023-04-16T16:48:27.754Z,98944.75
2023-04-16T16:50:54.781Z,98940.97
2023-04-16T16:53:21.112Z,98942.84
2023-04-16T16:55:47.481Z,98939.34
2023-04-16T16:58:13.881Z,98939.34
2023-04-16T17:00:41.474Z,98937.72
2023-04-16T17:03:09.275Z,98948.25
2023-04-16T17:05:36.124Z,98947.22
2023-04-16T17:08:02.626Z,98944.50
2023-04-16T17:10:29.113Z,98940.97
2023-04-16T17:12:55.941Z,98943.66
2023-04-16T17:15:24.017Z,98946.38
2023-04-16T17:17:50.846Z,98945.03
2023-04-16T17:20:17.458Z,98945.31
2023-04-16T17:22:44.104Z,98947.47
2023-04-16T17:25:10.856Z,98952.88
2023-04-16T17:27:37.710Z,98949.63
2023-04-16T17:30:05.722Z,98956.63
2023-04-16T17:32:33.018Z,98953.94
2023-04-16T17:35:01.035Z,98948.00
2023-04-16T17:37:27.574Z,98950.44
2023-04-16T17:39:54.029Z,98956.63
2023-04-16T17:42:20.586Z,98958.53
2023-04-16T17:44:47.603Z,98971.25
2023-04-16T17:47:14.174Z,98965.03
2023-04-16T17:49:40.664Z,98968.00
2023-04-16T17:52:07.205Z,98961.50
2023-04-16T17:54:33.846Z,98969.63
2023-04-16T17:57:00.583Z,98975.03
2023-04-16T17:59:27.361Z,98973.41
2023-04-16T18:01:54.665Z,98981.53
2023-04-16T18:04:21.579Z,98971.25
2023-04-16T18:06:48.446Z,98975.59
2023-04-16T18:09:15.418Z,98970.41
2023-04-16T18:11:41.885Z,98980.41
2023-04-16T18:14:09.860Z,98980.19
2023-04-16T18:16:36.584Z,98976.91
2023-04-16T18:19:03.140Z,98979.38
2023-04-16T18:21:30.324Z,98981.78
2023-04-16T18:23:57.128Z,98990.72
2023-04-16T18:26:23.560Z,98986.91
2023-04-16T18:28:50.355Z,98981.53
2023-04-16T18:31:20.659Z,98996.66
2023-04-16T18:33:56.494Z,98990.97
2023-04-16T18:36:24.548Z,98992.88
2023-04-16T18:39:00.848Z,98993.66
2023-04-16T18:41:28.638Z,98998.00
2023-04-16T18:43:55.031Z,98999.06
2023-04-16T18:46:21.578Z,99004.47
2023-04-16T18:48:48.031Z,99007.19
2023-04-16T18:51:16.059Z,99005.28
2023-04-16T18:53:44.356Z,99008.00
2023-04-16T18:56:11.575Z,99002.59
2023-04-16T18:58:38.152Z,99009.88
2023-04-16T19:01:06.167Z,99013.41
2023-04-16T19:03:33.422Z,99019.91
2023-04-16T19:06:00.044Z,99014.22
2023-04-16T19:08:27.080Z,99018.81
2023-04-16T19:10:53.531Z,99025.28
2023-04-16T19:13:20.004Z,99019.91
2023-04-16T19:15:46.484Z,99026.09
2023-04-16T19:18:12.956Z,99022.59
2023-04-16T19:20:39.555Z,99032.31
2023-04-16T19:23:08.269Z,99026.38
2023-04-16T19:25:39.420Z,99032.88
2023-04-16T19:28:05.865Z,99028.28
2023-04-16T19:30:32.505Z,99044.50
2023-04-16T19:32:59.035Z,99032.88
2023-04-16T19:35:25.836Z,99038.28
2023-04-16T19:37:52.352Z,99033.16
2023-04-16T19:40:19.117Z,99028.00
2023-04-16T19:42:45.568Z,99026.38
2023-04-16T19:45:12.300Z,99030.16
2023-04-16T19:47:38.891Z,99031.78
2023-04-16T19:50:05.986Z,99030.16
2023-04-16T19:52:37.310Z,99035.56
2023-04-16T19:55:04.335Z,99043.66
2023-04-16T19:57:30.789Z,99035.56
2023-04-16T19:59:57.329Z,99036.38
2023-04-16T20:02:23.759Z,99043.38
2023-04-16T20:04:50.766Z,99044.22
2023-04-16T20:07:17.505Z,99042.59
2023-04-16T20:09:43.932Z,99038.81
2023-04-16T20:12:10.435Z,99045.03
2023-04-16T20:14:36.804Z,99049.63
2023-04-16T20:17:03.469Z,99045.28
2023-04-16T20:19:33.291Z,99045.03
2023-04-16T20:21:59.751Z,99041.53
2023-04-16T20:24:26.414Z,99045.84
2023-04-16T20:26:52.815Z,99044.22
2023-04-16T20:29:19.416Z,99044.22
2023-04-16T20:31:46.162Z,99040.97
2023-04-16T20:34:12.787Z,99049.63
2023-04-16T20:36:39.356Z,99047.19
2023-04-16T20:39:07.852Z,99049.06
2023-04-16T20:41:34.348Z,99046.38
2023-04-16T20:44:05.328Z,99039.34
2023-04-16T20:46:36.161Z,99037.72
2023-04-16T20:49:02.627Z,99043.13
2023-04-16T20:51:29.106Z,99042.03
2023-04-16T20:53:55.486Z,99046.91
2023-04-16T20:56:21.964Z,99038.00
2023-04-16T20:58:48.582Z,99038.00
2023-04-16T21:01:15.060Z,99033.41
2023-04-16T21:03:41.658Z,99039.09
2023-04-16T21:06:08.246Z,99036.38
2023-04-16T21:08:35.168Z,99030.13
2023-04-16T21:11:01.707Z,99030.97
2023-04-16T21:13:28.261Z,99033.91
2023-04-16T21:15:54.746Z,99035.00
2023-04-16T21:18:21.214Z,99034.19
2023-04-16T21:20:47.755Z,99034.19
2023-04-16T21:23:14.274Z,99038.78
2023-04-16T21:25:41.162Z,99030.16
2023-04-16T21:28:08.084Z,99036.38
2023-04-16T21:30:34.702Z,99036.38
2023-04-16T21:33:01.264Z,99034.47
2023-04-16T21:35:28.196Z,99037.16
2023-04-16T21:37:54.560Z,99039.34
2023-04-16T21:40:21.080Z,99039.88
2023-04-16T21:42:47.552Z,99035.81
2023-04-16T21:45:14.486Z,99025.25
2023-04-16T21:47:41.099Z,99035.00
2023-04-16T21:50:08.266Z,99040.97
2023-04-16T21:52:40.130Z,99038.53
2023-04-16T21:55:09.046Z,99040.16
2023-04-16T21:57:35.442Z,99035.00
2023-04-16T22:00:02.112Z,99031.22
2023-04-16T22:02:28.671Z,99032.28
2023-04-16T22:04:55.860Z,99036.06
2023-04-16T22:07:22.452Z,99036.06
2023-04-16T22:09:49.111Z,99030.66
2023-04-16T22:12:15.633Z,99029.03
2023-04-16T22:14:49.188Z,99028.50
2023-04-16T22:17:27.659Z,99033.63
2023-04-16T22:19:54.814Z,99027.44
2023-04-16T22:22:22.042Z,99025.81
2023-04-16T22:24:48.741Z,99026.88
2023-04-16T22:27:15.517Z,99029.03
2023-04-16T22:29:41.936Z,99023.63
2023-04-16T22:32:08.364Z,99027.41
2023-04-16T22:34:35.059Z,99024.72
2023-04-16T22:37:03.080Z,99030.09
2023-04-16T22:39:31.595Z,99024.72
2023-04-16T22:41:58.107Z,99021.19
2023-04-16T22:44:24.526Z,99016.06
2023-04-16T22:46:51.234Z,99018.78
2023-04-16T22:49:17.695Z,99020.38
2023-04-16T22:51:44.750Z,99020.38
2023-04-16T22:54:14.089Z,99021.47
2023-04-16T22:56:40.980Z,99026.06
2023-04-16T22:59:08.080Z,99020.94
2023-04-16T23:01:34.955Z,99022.81
2023-04-16T23:04:01.557Z,99022.00
2023-04-16T23:06:27.971Z,99020.94
2023-04-16T23:08:54.361Z,99021.19
2023-04-16T23:11:20.903Z,99027.41
2023-04-16T23:13:47.349Z,99020.38
2023-04-16T23:16:13.853Z,99023.06
2023-04-16T23:18:40.327Z,99022.81
2023-04-16T23:21:06.802Z,99032.25
2023-04-16T23:23:33.316Z,99024.16
2023-04-16T23:26:00.951Z,99024.16
2023-04-16T23:28:27.333Z,99024.16
2023-04-16T23:30:53.853Z,99017.09
2023-04-16T23:33:20.433Z,99020.88
2023-04-16T23:35:47.381Z,99017.09
2023-04-16T23:38:13.826Z,99026.28
2023-04-16T23:40:40.344Z,99019.25
2023-04-16T23:43:06.772Z,99023.03
2023-04-16T23:45:33.243Z,99023.03
2023-04-16T23:47:59.776Z,99021.41
2023-04-16T23:50:26.277Z,99025.19
2023-04-16T23:52:52.753Z,99019.78
2023-04-16T23:55:19.330Z,99014.38
2023-04-16T23:57:46.268Z,99018.97
